バンダルスリブガワン の空港の天気 - METARとTAF

ブルネイ国際空港 ( WBSB / BWN ) - ブルネイ バンダルスリブガワン
飛行場実況気象(Metar)
観測時間07/16 14:00 BNT (07/16 06:00 UTC)
風向・風速南西 5m/s
視程9000m
天気現象
全天の4割程度の雲 雲底高度 520m
全天の4割程度の雲 雲底高度 4270m
全天の8割程度の雲 雲底高度 9140m
気温33℃
湿度59%
気圧1006hPa
METARWBSB 160600Z 23009KT 9000 SCT017 SCT140 BKN300 33/24 Q1006 NOSIG
過去の天気等 Google飛行場航空写真 Wunderground天気予報

過去48時間のMETAR

飛行場予報(TAF)
発表時間: 7/16 13:00 BNT (7/16 05:00 UTC)
予報対象時間: 16日14時 BNT ~ 17日20時 BNT
風向・風速西南西 5m/s
視程9000m
全天の4割程度の雲 雲底高度 490m
少しの積乱雲 雲底高度 520m
16日18時 BNT ~ 16日20時 BNT に一時的に
視程7000m
天気現象しゅう雨 雷雨
17日0時 BNT ~ 17日2時 BNT に一時的に
視程5000m
天気現象しゅう雨
TAF WBSB 160500Z 1606/1712 24010KT 9000 SCT016 FEW017CB
TEMPO 1610/1612 7000 SHRA TSRA
TEMPO 1616/1618 5000 SHRA